Airport View

Enter AWOS ICAO identifier for current METAR.

ex. KFNL

KFXY 202230Z AUTO 15008KT 2 1/2SM -RA OVC006 04/04 A2997 RMK AO2 P0002

20 Oct 2020 22:32

Frequency: 123.925

Phone: 641-581-2347

Other Area AWOS: KMCW - KAEL - KAXA - KCAV

TAF KMCW 201742Z 2018/2118 13017KT P6SM VCSH OVC040 FM202000 15012KT 6SM -SHRA BR OVC015 FM202100 15011G20KT 6SM -SHRA BR OVC008 FM210200 23007KT P6SM BKN008 FM210400 26008KT P6SM BKN010 FM211700 31005KT P6SM BKN080